Time;durP1;ratioP1;P1;durP2;ratioP2;P2;SDS_P1;SDS_P2;PMS_P1;PMS_P2;Temp;Humidity;BMP_temperature;BMP_pressure;BME280_temperature;BME280_humidity;BME280_pressure;Samples;Min_cycle;Max_cycle;Signal;HPM_P1;HPM_P2
2022/11/22 00:02:24;;;;;;;4.28;2.00;;;6.90;84.50;;;;;;5073070;28;20090;-48
2022/11/22 00:04:49;;;;;;;2.97;1.63;;;6.90;84.60;;;;;;5072983;28;20103;-50
2022/11/22 00:07:15;;;;;;;4.25;2.55;;;6.90;84.50;;;;;;5073474;28;20465;-53
2022/11/22 00:09:41;;;;;;;5.15;2.58;;;7.00;84.20;;;;;;5072916;28;20025;-49
2022/11/22 00:12:06;;;;;;;4.35;1.90;;;7.00;84.30;;;;;;5073771;28;20024;-52
2022/11/22 00:14:32;;;;;;;5.07;2.00;;;7.00;84.20;;;;;;5074288;28;20033;-50
2022/11/22 00:16:58;;;;;;;4.68;1.52;;;7.10;84.20;;;;;;5077210;28;20025;-51
2022/11/22 00:19:23;;;;;;;7.07;2.10;;;7.10;83.80;;;;;;5076922;28;20023;-51
2022/11/22 00:21:49;;;;;;;6.25;2.45;;;7.10;83.70;;;;;;5076849;28;20025;-49
2022/11/22 00:24:14;;;;;;;6.38;1.92;;;7.00;84.00;;;;;;5075578;28;20025;-47
2022/11/22 00:26:40;;;;;;;2.70;1.20;;;7.00;84.40;;;;;;5076820;28;20027;-47
2022/11/22 00:29:06;;;;;;;7.07;1.65;;;7.10;83.80;;;;;;5076983;28;20117;-48
2022/11/22 00:31:31;;;;;;;4.53;1.65;;;7.10;83.70;;;;;;5076691;28;20472;-49
2022/11/22 00:33:57;;;;;;;2.63;1.92;;;7.10;84.00;;;;;;5076468;28;20195;-48
2022/11/22 00:36:23;;;;;;;2.47;1.35;;;7.10;83.70;;;;;;5076622;28;20082;-47
2022/11/22 00:38:49;;;;;;;5.88;1.58;;;7.10;83.70;;;;;;5076447;28;20052;-50
2022/11/22 00:41:15;;;;;;;2.85;0.90;;;7.10;83.70;;;;;;5076404;28;20013;-48
2022/11/22 00:43:41;;;;;;;5.78;1.33;;;7.10;83.70;;;;;;5076934;28;20031;-48
2022/11/22 00:46:06;;;;;;;8.77;2.13;;;7.20;83.80;;;;;;5076420;28;20024;-50
2022/11/22 00:48:32;;;;;;;3.55;1.45;;;7.20;83.50;;;;;;5076421;28;20046;-49
2022/11/22 00:50:58;;;;;;;6.53;1.30;;;7.20;83.30;;;;;;5076340;28;20033;-49
2022/11/22 00:53:23;;;;;;;3.80;1.23;;;7.20;83.50;;;;;;5076311;28;20076;-49
2022/11/22 00:55:49;;;;;;;2.42;1.20;;;7.10;83.80;;;;;;5076233;28;20056;-48
2022/11/22 00:58:14;;;;;;;2.45;1.25;;;7.10;83.90;;;;;;5076238;28;20103;-48
2022/11/22 01:00:40;;;;;;;7.60;1.70;;;7.10;84.40;;;;;;5076544;28;20462;-48
2022/11/22 01:03:10;;;;;;;6.40;1.42;;;7.00;84.90;;;;;;5074933;28;20041;-50
2022/11/22 01:05:36;;;;;;;4.35;2.70;;;7.00;84.90;;;;;;5076293;28;20024;-50
2022/11/22 01:08:02;;;;;;;3.20;1.67;;;7.00;85.20;;;;;;5076057;28;20034;-50
2022/11/22 01:10:27;;;;;;;1.80;1.27;;;7.00;85.30;;;;;;5076020;28;20029;-53
2022/11/22 01:12:53;;;;;;;4.35;2.47;;;6.90;85.40;;;;;;5076636;28;20457;-48
2022/11/22 01:15:19;;;;;;;4.25;1.45;;;6.90;85.80;;;;;;5076182;28;20103;-51
2022/11/22 01:17:44;;;;;;;6.05;1.95;;;6.90;85.80;;;;;;5075875;28;20078;-50
2022/11/22 01:20:10;;;;;;;3.17;1.15;;;6.90;86.10;;;;;;5075723;28;20021;-48
2022/11/22 01:22:36;;;;;;;5.03;2.30;;;6.90;86.10;;;;;;5076046;28;20431;-49
2022/11/22 01:25:02;;;;;;;5.63;3.00;;;6.90;86.20;;;;;;5074989;28;20025;-49
2022/11/22 01:27:27;;;;;;;3.38;1.35;;;6.90;86.50;;;;;;5075963;28;20035;-50
2022/11/22 01:29:53;;;;;;;3.60;1.73;;;6.90;86.90;;;;;;5075608;28;20431;-50
2022/11/22 01:32:18;;;;;;;2.70;1.40;;;6.80;88.00;;;;;;5075770;28;20021;-52
2022/11/22 01:34:44;;;;;;;7.25;1.67;;;6.60;88.70;;;;;;5075681;28;20020;-47
2022/11/22 01:37:09;;;;;;;8.00;1.92;;;6.60;89.30;;;;;;5075863;28;20070;-48
2022/11/22 01:39:35;;;;;;;4.20;1.73;;;6.50;89.50;;;;;;5075799;28;20079;-52
2022/11/22 01:42:01;;;;;;;3.72;1.63;;;6.50;89.50;;;;;;5075747;28;20020;-50
2022/11/22 01:44:29;;;;;;;4.22;1.58;;;6.50;89.90;;;;;;5077074;28;20427;-50
2022/11/22 01:47:06;;;;;;;6.68;1.83;;;6.60;89.90;;;;;;5075787;28;20104;-48
2022/11/22 01:49:38;;;;;;;4.22;2.03;;;6.50;90.00;;;;;;5075989;28;20028;-48
2022/11/22 01:52:13;;;;;;;4.40;2.97;;;6.60;90.10;;;;;;5075358;28;20082;-51
2022/11/22 01:54:41;;;;;;;5.82;1.90;;;6.60;90.00;;;;;;5073949;28;20119;-52
2022/11/22 01:57:15;;;;;;;3.78;2.88;;;6.60;90.10;;;;;;5075482;28;20353;-52
2022/11/22 01:59:46;;;;;;;3.75;1.85;;;6.60;90.10;;;;;;5075345;28;20031;-49
2022/11/22 02:02:12;;;;;;;7.10;2.15;;;6.70;90.10;;;;;;5075062;28;20424;-50
2022/11/22 02:04:40;;;;;;;5.38;2.33;;;6.70;90.00;;;;;;5073547;28;20039;-49
2022/11/22 02:07:28;;;;;;;3.83;1.70;;;6.70;90.00;;;;;;5075257;28;20116;-50
2022/11/22 02:09:54;;;;;;;5.57;2.25;;;6.70;90.10;;;;;;5074962;28;20465;-47
2022/11/22 02:12:24;;;;;;;2.67;2.03;;;6.80;90.10;;;;;;5074686;28;20025;-47
2022/11/22 02:14:51;;;;;;;5.53;2.67;;;6.80;90.10;;;;;;5074979;28;20108;-51
2022/11/22 02:17:16;;;;;;;6.50;2.70;;;6.70;90.00;;;;;;5074673;28;20388;-49
2022/11/22 02:19:48;;;;;;;6.65;2.83;;;6.80;90.00;;;;;;5074888;28;20020;-51
2022/11/22 02:22:16;;;;;;;8.80;2.70;;;6.80;90.20;;;;;;5074932;28;20032;-49
2022/11/22 02:24:49;;;;;;;11.20;2.75;;;6.80;90.20;;;;;;5074774;28;20029;-50
2022/11/22 02:27:15;;;;;;;4.05;2.40;;;6.90;89.90;;;;;;5074357;28;20115;-49
2022/11/22 02:30:08;;;;;;;5.35;2.25;;;6.90;90.00;;;;;;5074410;28;20059;-48
2022/11/22 02:32:34;;;;;;;9.02;2.72;;;6.90;89.90;;;;;;5074645;28;20063;-49
2022/11/22 02:35:00;;;;;;;3.22;1.65;;;6.90;89.80;;;;;;5074300;28;20041;-49
2022/11/22 02:37:31;;;;;;;4.45;1.95;;;6.90;89.60;;;;;;5073394;28;20039;-51
2022/11/22 02:40:03;;;;;;;7.00;2.42;;;7.00;89.50;;;;;;5074738;28;20111;-50
2022/11/22 02:42:30;;;;;;;8.32;2.83;;;6.90;89.60;;;;;;5074080;28;20476;-51
2022/11/22 02:44:55;;;;;;;6.25;2.20;;;7.00;89.60;;;;;;5074923;28;20460;-49
2022/11/22 02:47:21;;;;;;;7.38;1.73;;;7.10;89.50;;;;;;5074207;28;20141;-51
2022/11/22 02:49:47;;;;;;;3.50;2.67;;;7.10;89.20;;;;;;5074352;28;20021;-47
2022/11/22 02:52:16;;;;;;;7.00;2.05;;;7.10;89.30;;;;;;5074010;28;20107;-48
2022/11/22 02:54:42;;;;;;;7.63;2.03;;;7.10;89.50;;;;;;5074293;28;20111;-48
2022/11/22 02:57:07;;;;;;;5.32;2.55;;;7.10;89.30;;;;;;5073866;28;20101;-50
2022/11/22 02:59:33;;;;;;;10.55;2.63;;;7.10;89.30;;;;;;5072569;28;20035;-47
2022/11/22 03:01:59;;;;;;;5.60;1.75;;;7.20;89.30;;;;;;5073813;28;20023;-47
2022/11/22 03:04:24;;;;;;;11.32;2.15;;;7.20;89.00;;;;;;5074069;28;20201;-50
2022/11/22 03:06:55;;;;;;;7.60;2.70;;;7.30;88.90;;;;;;5073677;28;20112;-48
2022/11/22 03:09:22;;;;;;;7.38;2.30;;;7.30;88.90;;;;;;5072840;28;20052;-48
2022/11/22 03:11:48;;;;;;;7.28;1.80;;;7.30;88.90;;;;;;5073546;28;20102;-48
2022/11/22 03:14:14;;;;;;;12.02;2.70;;;7.30;88.70;;;;;;5073746;28;20066;-51
2022/11/22 03:16:43;;;;;;;5.22;1.65;;;7.30;88.70;;;;;;5073476;28;20025;-48
2022/11/22 03:19:09;;;;;;;12.00;2.47;;;7.30;88.70;;;;;;5073599;28;20021;-51
2022/11/22 03:21:35;;;;;;;10.52;2.97;;;7.40;88.70;;;;;;5073793;28;20042;-50
2022/11/22 03:24:01;;;;;;;12.25;2.83;;;7.30;88.50;;;;;;5073741;28;20073;-52
2022/11/22 03:26:26;;;;;;;4.15;1.80;;;7.30;88.50;;;;;;5074258;28;20418;-52
2022/11/22 03:28:52;;;;;;;5.00;1.92;;;7.40;88.40;;;;;;5072081;28;20032;-51
2022/11/22 03:31:17;;;;;;;9.50;3.30;;;7.40;88.30;;;;;;5073315;28;20025;-49
2022/11/22 03:33:43;;;;;;;10.00;1.95;;;7.50;88.20;;;;;;5073243;28;20141;-48
2022/11/22 03:36:09;;;;;;;12.55;2.60;;;7.40;88.00;;;;;;5073800;28;20051;-49
2022/11/22 03:38:34;;;;;;;7.15;2.20;;;7.50;88.00;;;;;;5073258;28;20106;-47
2022/11/22 03:41:00;;;;;;;10.77;2.45;;;7.40;88.10;;;;;;5073222;28;20031;-48
2022/11/22 03:43:26;;;;;;;10.10;2.72;;;7.40;87.90;;;;;;5073234;28;20055;-48
2022/11/22 03:45:52;;;;;;;5.20;1.98;;;7.40;87.90;;;;;;5073272;28;20108;-51
2022/11/22 03:48:18;;;;;;;12.77;2.80;;;7.40;88.00;;;;;;5073005;28;20484;-49
2022/11/22 03:50:44;;;;;;;7.18;2.05;;;7.50;88.00;;;;;;5073438;28;20353;-48
2022/11/22 03:53:10;;;;;;;6.85;2.60;;;7.40;87.70;;;;;;5073062;28;20040;-51
2022/11/22 03:55:35;;;;;;;10.18;2.97;;;7.40;87.70;;;;;;5073420;28;20028;-50
2022/11/22 03:58:01;;;;;;;9.63;3.78;;;7.30;87.80;;;;;;5073087;28;20029;-49
2022/11/22 04:00:27;;;;;;;7.70;3.05;;;7.30;87.80;;;;;;5073115;28;20107;-49
2022/11/22 04:02:52;;;;;;;11.60;3.08;;;7.20;88.00;;;;;;5073319;28;20029;-50
2022/11/22 04:05:18;;;;;;;10.73;2.55;;;7.10;88.30;;;;;;5073386;28;20029;-49
2022/11/22 04:07:44;;;;;;;13.93;3.53;;;7.10;88.50;;;;;;5073025;28;20376;-50
2022/11/22 04:10:09;;;;;;;13.38;2.95;;;7.10;88.60;;;;;;5073025;28;20086;-48
2022/11/22 04:12:35;;;;;;;8.77;4.63;;;7.20;88.50;;;;;;5072320;28;20519;-49
2022/11/22 04:15:07;;;;;;;7.95;2.22;;;7.30;88.30;;;;;;5073039;28;20028;-51
2022/11/22 04:17:46;;;;;;;11.27;2.83;;;7.20;88.30;;;;;;5072971;28;20024;-48
2022/11/22 04:23:15;;;;;;;8.85;3.38;;;7.00;88.50;;;;;;5072950;28;20052;-49
2022/11/22 04:25:46;;;;;;;12.52;2.20;;;7.00;88.60;;;;;;5072843;28;20035;-50
2022/11/22 04:28:14;;;;;;;16.90;3.55;;;6.90;88.80;;;;;;5073015;28;20024;-51
2022/11/22 04:33:24;;;;;;;12.95;2.38;;;6.70;89.10;;;;;;5073255;28;20120;-49
2022/11/22 04:35:51;;;;;;;9.98;2.25;;;6.70;89.30;;;;;;5072816;28;20521;-48
2022/11/22 04:38:17;;;;;;;8.55;1.98;;;6.50;89.30;;;;;;5072766;28;20044;-48
2022/11/22 04:40:43;;;;;;;5.50;2.20;;;6.50;89.60;;;;;;5072616;28;20020;-49
2022/11/22 04:46:02;;;;;;;13.25;2.53;;;6.30;89.80;;;;;;5072967;28;20039;-49
2022/11/22 04:48:28;;;;;;;13.93;2.45;;;6.30;90.00;;;;;;5071478;28;20447;-49
2022/11/22 04:53:38;;;;;;;11.88;2.20;;;6.20;90.20;;;;;;5072597;28;20079;-49
2022/11/22 04:56:04;;;;;;;9.77;2.90;;;6.20;90.40;;;;;;5072609;28;20457;-48
2022/11/22 04:58:29;;;;;;;13.38;3.20;;;6.20;90.60;;;;;;5072487;28;20545;-49
2022/11/22 05:00:55;;;;;;;10.02;3.60;;;6.10;90.50;;;;;;5074312;28;20090;-48
2022/11/22 05:03:20;;;;;;;7.18;2.13;;;6.20;90.80;;;;;;5076121;28;20396;-48
2022/11/22 05:05:46;;;;;;;8.45;2.35;;;6.10;90.60;;;;;;5074884;28;20436;-50
2022/11/22 05:08:12;;;;;;;11.27;3.03;;;6.10;90.60;;;;;;5076008;28;20067;-49
2022/11/22 05:10:59;;;;;;;9.18;2.25;;;6.00;90.60;;;;;;5076305;28;20028;-49
2022/11/22 05:13:25;;;;;;;11.93;3.88;;;6.10;90.70;;;;;;5075726;28;20036;-49
2022/11/22 05:15:51;;;;;;;7.55;2.53;;;6.00;90.60;;;;;;5076039;28;20031;-49
2022/11/22 05:18:21;;;;;;;7.90;2.05;;;5.80;90.80;;;;;;5074593;28;20024;-48
2022/11/22 05:20:47;;;;;;;13.90;3.72;;;5.90;91.10;;;;;;5075850;28;20036;-48
2022/11/22 05:25:58;;;;;;;13.77;2.80;;;5.80;91.00;;;;;;5076060;28;20032;-49
2022/11/22 05:28:28;;;;;;;8.98;2.55;;;5.80;91.00;;;;;;5075912;28;20028;-49
2022/11/22 05:30:54;;;;;;;14.75;4.15;;;5.80;91.00;;;;;;5076021;28;20021;-51
2022/11/22 05:33:19;;;;;;;10.35;2.40;;;5.70;91.00;;;;;;5075485;28;20032;-49
2022/11/22 05:35:45;;;;;;;18.38;2.92;;;5.70;91.10;;;;;;5075621;28;20047;-50
2022/11/22 05:38:11;;;;;;;12.52;2.90;;;5.80;91.10;;;;;;5075656;28;20020;-50
2022/11/22 05:40:36;;;;;;;10.88;2.63;;;5.70;90.70;;;;;;5075743;28;20411;-50
2022/11/22 05:43:02;;;;;;;9.65;2.53;;;5.80;90.80;;;;;;5075440;28;20024;-49
2022/11/22 05:45:27;;;;;;;12.00;3.13;;;5.80;90.50;;;;;;5075847;28;20029;-51
2022/11/22 05:47:54;;;;;;;9.77;2.00;;;5.70;90.50;;;;;;5076135;28;20457;-50
2022/11/22 05:50:20;;;;;;;10.77;2.35;;;5.70;90.40;;;;;;5075772;28;20031;-49
2022/11/22 05:52:45;;;;;;;6.72;2.33;;;5.60;90.40;;;;;;5075482;28;20492;-46
2022/11/22 05:55:11;;;;;;;8.15;2.72;;;5.70;90.40;;;;;;5075692;28;20100;-50
2022/11/22 05:57:36;;;;;;;8.13;2.78;;;5.80;90.30;;;;;;5075795;28;20080;-50
2022/11/22 06:00:03;;;;;;;9.48;2.17;;;5.70;90.00;;;;;;5075653;28;20042;-48
2022/11/22 06:02:30;;;;;;;18.52;2.63;;;5.80;90.20;;;;;;5075186;28;20036;-47
2022/11/22 06:04:56;;;;;;;8.90;1.85;;;5.70;90.10;;;;;;5075076;28;20099;-49
2022/11/22 06:07:21;;;;;;;9.52;1.83;;;5.70;90.00;;;;;;5075028;28;20101;-49
2022/11/22 06:09:47;;;;;;;11.15;3.22;;;5.80;89.60;;;;;;5075056;28;20052;-48
2022/11/22 06:12:13;;;;;;;14.57;2.72;;;5.70;89.50;;;;;;5074909;28;20099;-49
2022/11/22 06:14:38;;;;;;;10.18;2.25;;;5.70;89.60;;;;;;5075038;28;20025;-51
2022/11/22 06:17:04;;;;;;;8.60;1.60;;;5.60;89.60;;;;;;5074892;28;20074;-50
2022/11/22 06:19:29;;;;;;;11.60;2.60;;;5.60;89.70;;;;;;5074443;28;20104;-50
2022/11/22 06:21:55;;;;;;;14.00;4.60;;;5.50;89.60;;;;;;5073350;28;20158;-49
2022/11/22 06:24:21;;;;;;;8.45;2.30;;;5.50;89.90;;;;;;5074343;28;20376;-49
2022/11/22 06:26:46;;;;;;;11.27;2.42;;;5.50;89.90;;;;;;5074577;28;20024;-50
2022/11/22 06:29:12;;;;;;;15.95;3.80;;;5.50;89.70;;;;;;5074297;28;20477;-52
2022/11/22 06:31:37;;;;;;;17.02;2.85;;;5.30;89.80;;;;;;5074462;28;20024;-49
2022/11/22 06:34:03;;;;;;;9.95;2.10;;;5.50;89.90;;;;;;5074711;28;20029;-48
2022/11/22 06:36:31;;;;;;;10.27;2.15;;;5.50;89.90;;;;;;5074499;28;20392;-48
2022/11/22 06:38:57;;;;;;;6.78;3.13;;;5.50;89.40;;;;;;5074691;28;20024;-48
2022/11/22 06:41:25;;;;;;;9.75;3.85;;;5.50;89.30;;;;;;5074683;28;20021;-49
2022/11/22 15:54:02;;;;;;;2.70;1.23;;;8.40;74.80;;;;;;5153073;27;20140;-60
2022/11/22 15:56:34;;;;;;;0.50;0.50;;;8.40;74.70;;;;;;5152897;27;20396;-63
2022/11/22 15:59:00;;;;;;;5.82;1.00;;;8.50;74.40;;;;;;5152127;27;20412;-63
2022/11/22 16:01:26;;;;;;;17.48;1.23;;;8.50;74.50;;;;;;5151805;27;20068;-63
2022/11/22 16:04:01;;;;;;;1.45;0.88;;;8.60;74.30;;;;;;5152133;27;20125;-62
2022/11/22 16:06:30;;;;;;;2.50;0.80;;;8.60;74.10;;;;;;5152163;27;20047;-61
2022/11/22 16:08:59;;;;;;;0.77;0.60;;;8.60;74.10;;;;;;5152039;27;20094;-62
2022/11/22 16:11:31;;;;;;;1.95;0.85;;;8.50;74.10;;;;;;5152008;27;20054;-62
2022/11/22 16:13:57;;;;;;;2.08;1.02;;;8.60;74.20;;;;;;5152169;27;20352;-62
2022/11/22 16:16:28;;;;;;;3.13;1.73;;;8.50;74.40;;;;;;5151984;27;20019;-62
2022/11/22 16:19:21;;;;;;;1.95;1.50;;;8.60;74.50;;;;;;5133903;27;20080;-62
2022/11/22 16:22:00;;;;;;;3.22;1.40;;;8.60;74.50;;;;;;5152049;27;20019;-63
2022/11/22 16:24:28;;;;;;;1.90;0.95;;;8.50;74.80;;;;;;5116887;27;20030;-63
2022/11/22 16:27:00;;;;;;;5.35;1.50;;;8.60;74.60;;;;;;5152873;27;20054;-63
2022/11/22 16:29:34;;;;;;;3.22;1.10;;;8.50;75.10;;;;;;5152654;27;20026;-63
2022/11/22 16:32:11;;;;;;;7.43;0.77;;;8.60;75.20;;;;;;5153468;27;20034;-62
2022/11/22 16:34:41;;;;;;;6.15;1.30;;;8.50;75.20;;;;;;5153254;27;20088;-62
2022/11/22 16:37:27;;;;;;;1.42;0.80;;;8.60;75.10;;;;;;5152735;27;20029;-62
2022/11/22 16:39:53;;;;;;;2.38;0.77;;;8.70;75.10;;;;;;5151589;27;20471;-66
2022/11/22 16:42:18;;;;;;;2.40;1.00;;;8.60;75.40;;;;;;5151288;27;20026;-60
2022/11/22 16:44:44;;;;;;;3.42;1.00;;;8.70;75.60;;;;;;5151649;27;20518;-62
2022/11/22 16:47:17;;;;;;;1.75;1.23;;;8.60;75.60;;;;;;5151547;27;20027;-64
2022/11/22 16:49:46;;;;;;;1.63;0.80;;;8.60;75.90;;;;;;5151414;27;20026;-63
2022/11/22 16:52:13;;;;;;;1.38;1.27;;;8.60;76.00;;;;;;5150915;27;20503;-61
2022/11/22 16:54:39;;;;;;;1.25;0.77;;;8.60;76.10;;;;;;5151016;27;20033;-61
2022/11/22 16:57:12;;;;;;;1.95;0.95;;;8.70;76.20;;;;;;5150725;27;20023;-62
2022/11/22 16:59:38;;;;;;;2.60;1.25;;;8.70;76.30;;;;;;5150727;27;20026;-62
2022/11/22 17:02:15;;;;;;;3.67;1.17;;;8.70;76.20;;;;;;5150745;27;20026;-61
2022/11/22 17:04:44;;;;;;;1.70;1.23;;;8.70;76.10;;;;;;5140980;27;20031;-62
2022/11/22 17:07:10;;;;;;;1.60;0.77;;;8.70;76.40;;;;;;5135695;27;20024;-63
2022/11/22 17:09:36;;;;;;;3.40;1.20;;;8.60;76.70;;;;;;5137002;27;20053;-63
2022/11/22 17:12:02;;;;;;;1.17;0.73;;;8.70;76.70;;;;;;5136975;27;20023;-62
2022/11/22 17:14:28;;;;;;;1.45;1.33;;;8.60;76.80;;;;;;5135594;27;20558;-63
2022/11/22 17:16:54;;;;;;;3.80;1.15;;;8.70;76.80;;;;;;5137066;27;20019;-62
2022/11/22 17:19:19;;;;;;;4.70;1.40;;;8.60;76.90;;;;;;5137606;27;20518;-63
2022/11/22 17:21:45;;;;;;;1.58;0.90;;;8.70;77.20;;;;;;5137364;27;20050;-61
2022/11/22 17:24:21;;;;;;;1.98;1.20;;;8.60;77.60;;;;;;5135587;27;20387;-63
2022/11/22 17:26:47;;;;;;;5.32;1.27;;;8.60;78.10;;;;;;5137219;27;20432;-61
2022/11/22 17:29:13;;;;;;;2.53;1.50;;;8.50;78.40;;;;;;5136782;27;20051;-63
2022/11/22 17:31:38;;;;;;;2.97;0.85;;;8.50;78.50;;;;;;5136678;27;20022;-64
2022/11/22 17:34:04;;;;;;;1.85;1.00;;;8.60;78.70;;;;;;5135501;27;20020;-62
2022/11/22 17:36:31;;;;;;;2.47;0.95;;;8.60;79.10;;;;;;5136898;27;20042;-62
2022/11/22 17:38:58;;;;;;;3.00;1.02;;;8.40;79.20;;;;;;5136584;27;20050;-62
2022/11/22 17:41:25;;;;;;;5.82;0.98;;;8.40;79.90;;;;;;5135322;27;20383;-63
2022/11/22 17:43:52;;;;;;;4.50;1.25;;;8.50;79.60;;;;;;5137110;27;20147;-63
2022/11/22 17:46:18;;;;;;;2.42;1.10;;;8.50;79.80;;;;;;5136475;27;20106;-62
2022/11/22 17:48:52;;;;;;;3.33;0.80;;;8.40;80.20;;;;;;5136500;27;20045;-62
2022/11/22 17:51:19;;;;;;;1.58;1.30;;;8.40;80.30;;;;;;5136631;27;20019;-63
2022/11/22 17:53:45;;;;;;;5.28;1.58;;;8.40;80.60;;;;;;5136027;27;20425;-62
2022/11/22 17:56:10;;;;;;;1.05;0.70;;;8.30;82.60;;;;;;5136547;27;20033;-62
2022/11/22 17:58:36;;;;;;;1.77;0.95;;;8.00;84.40;;;;;;5136144;27;20102;-62
2022/11/22 18:01:07;;;;;;;0.73;0.73;;;7.80;85.40;;;;;;5136112;27;20019;-63
2022/11/22 18:03:33;;;;;;;2.78;1.83;;;7.80;86.10;;;;;;5137108;27;20031;-63
2022/11/22 18:06:00;;;;;;;1.25;1.15;;;7.70;86.80;;;;;;5135944;27;20027;-62
2022/11/22 18:08:26;;;;;;;1.70;0.98;;;7.70;86.90;;;;;;5136159;27;20066;-62
2022/11/22 18:10:53;;;;;;;3.70;1.45;;;7.60;87.10;;;;;;5136175;27;20382;-65
2022/11/22 18:13:19;;;;;;;1.77;1.42;;;7.70;87.40;;;;;;5117550;27;20033;-63
2022/11/22 18:15:48;;;;;;;2.70;2.00;;;7.70;87.20;;;;;;5134726;27;20068;-62
2022/11/22 18:18:14;;;;;;;5.60;1.67;;;7.70;87.40;;;;;;5135643;27;20012;-62
2022/11/22 18:20:40;;;;;;;1.83;1.10;;;7.80;87.30;;;;;;5134335;27;20026;-62
2022/11/22 18:23:05;;;;;;;3.78;1.60;;;7.70;87.30;;;;;;5134568;27;20031;-61
2022/11/22 18:25:31;;;;;;;2.25;1.42;;;7.80;87.20;;;;;;5135463;27;20023;-63
2022/11/22 18:27:56;;;;;;;1.90;1.35;;;7.80;87.10;;;;;;5135339;27;20374;-63
2022/11/22 18:30:22;;;;;;;4.28;1.52;;;7.80;87.50;;;;;;5135516;27;20157;-61
2022/11/22 18:32:48;;;;;;;2.95;1.90;;;7.80;87.50;;;;;;5135654;27;20019;-62
2022/11/22 18:35:13;;;;;;;2.33;1.60;;;7.80;87.60;;;;;;5135794;27;20424;-62
2022/11/22 18:37:40;;;;;;;1.50;1.25;;;7.60;89.20;;;;;;5134000;27;20072;-61
2022/11/22 18:40:06;;;;;;;2.25;1.58;;;7.40;90.30;;;;;;5135529;27;20030;-62
2022/11/22 18:42:32;;;;;;;3.22;1.80;;;7.30;90.80;;;;;;5135472;27;20035;-60
2022/11/22 18:44:58;;;;;;;2.45;1.58;;;7.30;91.50;;;;;;5135852;27;20375;-61
2022/11/22 18:47:23;;;;;;;5.82;3.30;;;7.20;91.80;;;;;;5135328;27;20029;-60
2022/11/22 18:49:49;;;;;;;3.30;2.22;;;7.30;92.00;;;;;;5135122;27;20106;-63
2022/11/22 18:52:15;;;;;;;2.35;2.10;;;7.30;92.20;;;;;;5134750;27;20043;-61
2022/11/22 18:54:40;;;;;;;2.67;2.13;;;7.30;92.20;;;;;;5134961;27;20022;-63
2022/11/22 18:57:06;;;;;;;2.75;1.85;;;7.30;92.30;;;;;;5136099;27;20442;-62
2022/11/22 18:59:32;;;;;;;3.70;2.53;;;7.20;92.40;;;;;;5135335;27;20486;-62
2022/11/22 19:01:57;;;;;;;8.93;2.55;;;7.30;92.40;;;;;;5134756;27;20030;-62
2022/11/22 19:04:23;;;;;;;4.05;2.35;;;7.30;92.40;;;;;;5134980;27;20393;-60
2022/11/22 19:06:49;;;;;;;5.50;3.88;;;7.30;92.50;;;;;;5135095;27;20019;-62
2022/11/22 19:09:14;;;;;;;2.63;2.17;;;7.30;92.40;;;;;;5134707;27;20470;-62
2022/11/22 19:11:40;;;;;;;2.33;1.95;;;7.30;92.40;;;;;;5134579;27;20024;-62
2022/11/22 19:14:06;;;;;;;2.63;2.08;;;7.30;92.40;;;;;;5134454;27;20106;-63
2022/11/22 19:16:32;;;;;;;5.68;3.38;;;7.30;92.40;;;;;;5134643;27;20405;-62
2022/11/22 19:18:58;;;;;;;3.05;2.30;;;7.30;92.50;;;;;;5134818;27;20027;-62
2022/11/22 19:21:26;;;;;;;5.13;2.40;;;7.30;92.50;;;;;;5134556;27;20471;-61
2022/11/22 19:23:52;;;;;;;3.50;2.38;;;7.30;92.30;;;;;;5134803;27;20410;-63
2022/11/22 19:26:21;;;;;;;5.00;2.65;;;7.30;92.40;;;;;;5134419;27;20034;-62
2022/11/22 19:28:47;;;;;;;4.03;2.72;;;7.30;92.40;;;;;;5134655;27;20067;-61
2022/11/22 19:31:16;;;;;;;2.70;2.17;;;7.30;92.40;;;;;;5134661;27;20102;-60
2022/11/22 19:33:42;;;;;;;3.15;2.30;;;7.30;92.40;;;;;;5134507;27;20031;-62
2022/11/22 19:36:19;;;;;;;4.30;2.08;;;7.30;92.30;;;;;;5134443;27;20048;-61
2022/11/22 19:38:46;;;;;;;5.20;2.75;;;7.30;92.30;;;;;;5134697;27;20015;-62
2022/11/22 19:41:20;;;;;;;8.32;2.25;;;7.40;92.20;;;;;;5134415;27;20023;-61
2022/11/22 19:43:47;;;;;;;3.42;1.95;;;7.40;92.10;;;;;;5133973;27;20034;-62
2022/11/22 19:46:13;;;;;;;4.03;1.83;;;7.40;92.00;;;;;;5134222;27;20035;-61
2022/11/22 19:48:39;;;;;;;3.55;1.92;;;7.50;91.90;;;;;;5133933;27;20497;-61
2022/11/22 19:51:10;;;;;;;2.20;1.80;;;7.40;91.80;;;;;;5134220;28;20038;-62
2022/11/22 19:53:37;;;;;;;5.80;2.30;;;7.50;91.70;;;;;;5133924;28;20108;-62
2022/11/22 19:56:05;;;;;;;3.30;2.22;;;7.50;91.60;;;;;;5133970;27;20023;-61
2022/11/22 19:58:32;;;;;;;2.63;1.85;;;7.50;91.40;;;;;;5134011;27;20033;-61
2022/11/22 20:01:05;;;;;;;1.73;1.55;;;7.50;91.60;;;;;;5134208;28;20397;-60
2022/11/22 20:03:33;;;;;;;2.00;1.65;;;7.50;91.70;;;;;;5133854;28;20035;-61
2022/11/22 20:06:00;;;;;;;4.93;2.45;;;7.50;91.50;;;;;;5133855;27;20027;-61
2022/11/22 20:08:26;;;;;;;4.32;2.08;;;7.60;91.40;;;;;;5133950;28;20055;-62
2022/11/22 20:10:51;;;;;;;3.63;1.92;;;7.60;91.40;;;;;;5133519;28;20380;-62
2022/11/22 20:13:17;;;;;;;2.17;1.30;;;7.60;91.30;;;;;;5133682;28;20493;-62
2022/11/22 20:15:42;;;;;;;1.40;1.23;;;7.60;91.20;;;;;;5134142;27;20031;-62
2022/11/22 20:18:08;;;;;;;2.17;1.42;;;7.50;91.30;;;;;;5133733;28;20029;-61
2022/11/22 20:20:34;;;;;;;2.70;1.27;;;7.50;91.40;;;;;;5134172;27;20050;-60
2022/11/22 20:22:59;;;;;;;3.22;2.67;;;7.50;91.50;;;;;;5134140;28;20471;-61
2022/11/22 20:25:25;;;;;;;2.45;1.70;;;7.50;91.50;;;;;;5134112;28;20516;-61
2022/11/22 20:27:51;;;;;;;4.45;2.13;;;7.50;91.40;;;;;;5133800;28;20031;-62
2022/11/22 20:30:16;;;;;;;1.58;1.30;;;7.60;91.50;;;;;;5134023;28;20106;-63
2022/11/22 20:32:42;;;;;;;1.45;1.15;;;7.50;91.30;;;;;;5133898;27;20498;-62
2022/11/22 20:35:08;;;;;;;2.05;1.73;;;7.50;91.40;;;;;;5133951;28;20034;-62
2022/11/22 20:37:34;;;;;;;3.55;1.45;;;7.60;91.40;;;;;;5133724;28;20020;-61
2022/11/22 20:40:00;;;;;;;2.10;1.50;;;7.50;91.30;;;;;;5136344;27;20026;-62
2022/11/22 20:42:26;;;;;;;2.00;1.70;;;7.60;91.40;;;;;;5137814;27;20077;-62
2022/11/22 20:44:51;;;;;;;5.60;2.05;;;7.60;91.30;;;;;;5137579;27;20054;-63
2022/11/22 20:47:17;;;;;;;4.15;1.60;;;7.60;91.20;;;;;;5137591;27;20019;-62
2022/11/22 20:49:43;;;;;;;1.40;1.25;;;7.60;91.00;;;;;;5137651;27;20474;-61
2022/11/22 20:52:09;;;;;;;1.25;1.15;;;7.60;91.00;;;;;;5137426;27;20051;-63
2022/11/22 20:54:35;;;;;;;2.10;1.58;;;7.60;91.00;;;;;;5137653;27;20094;-62
2022/11/22 20:57:00;;;;;;;2.55;1.20;;;7.70;91.00;;;;;;5137288;27;20106;-62
2022/11/22 20:59:26;;;;;;;2.67;1.60;;;7.70;90.80;;;;;;5137371;27;20023;-62
2022/11/22 21:01:52;;;;;;;4.05;1.30;;;7.70;90.50;;;;;;5137450;27;20019;-61
2022/11/22 21:04:18;;;;;;;2.70;1.73;;;7.80;90.30;;;;;;5138339;27;20470;-62
2022/11/22 21:06:44;;;;;;;2.47;1.02;;;7.80;90.20;;;;;;5138423;27;20465;-62
2022/11/22 21:09:10;;;;;;;5.45;1.30;;;7.80;89.80;;;;;;5137992;27;20144;-62
2022/11/22 21:11:37;;;;;;;1.75;1.25;;;7.80;89.40;;;;;;5139313;27;20035;-61
2022/11/22 21:14:03;;;;;;;2.17;1.42;;;7.80;89.40;;;;;;5138977;27;20038;-63
2022/11/22 21:16:30;;;;;;;4.03;1.70;;;7.90;89.30;;;;;;5137959;27;20102;-61
2022/11/22 21:19:00;;;;;;;2.08;1.10;;;7.90;89.30;;;;;;5136705;27;20098;-61
2022/11/22 21:21:27;;;;;;;4.38;2.35;;;7.90;88.90;;;;;;5137649;27;20452;-61
2022/11/22 21:23:55;;;;;;;3.17;1.10;;;7.90;88.80;;;;;;5137178;27;20043;-61
2022/11/22 21:26:22;;;;;;;5.57;1.77;;;8.00;88.60;;;;;;5137417;27;20027;-61
2022/11/22 21:28:48;;;;;;;4.50;1.20;;;8.00;88.30;;;;;;5136974;27;20510;-62
2022/11/22 21:31:14;;;;;;;2.25;1.30;;;8.10;88.20;;;;;;5136880;27;20019;-62
2022/11/22 21:33:41;;;;;;;1.35;0.90;;;8.10;87.90;;;;;;5136751;27;20019;-62
2022/11/22 21:36:07;;;;;;;6.15;1.45;;;8.20;87.90;;;;;;5137306;27;20026;-61
2022/11/22 21:38:39;;;;;;;2.78;1.75;;;8.10;88.00;;;;;;5136557;27;20066;-61
2022/11/22 21:41:07;;;;;;;4.00;2.30;;;8.10;88.00;;;;;;5137285;27;20419;-63
2022/11/22 21:43:32;;;;;;;1.80;1.10;;;8.10;87.90;;;;;;5136761;27;20091;-60
2022/11/22 21:45:58;;;;;;;5.20;2.75;;;8.20;87.90;;;;;;5135404;27;20026;-61
2022/11/22 21:48:24;;;;;;;3.80;1.17;;;8.20;87.80;;;;;;5136719;27;20023;-61
2022/11/22 21:50:52;;;;;;;4.28;2.50;;;8.20;87.40;;;;;;5136533;27;20505;-61
2022/11/22 21:53:18;;;;;;;4.07;1.10;;;8.30;87.20;;;;;;5136177;27;20051;-60
2022/11/22 21:55:48;;;;;;;4.88;2.13;;;8.30;87.20;;;;;;5136180;27;20027;-62
2022/11/22 21:58:14;;;;;;;6.63;1.23;;;8.30;87.10;;;;;;5136441;27;20417;-61
2022/11/22 22:00:40;;;;;;;4.20;1.30;;;8.30;87.30;;;;;;5136575;27;20076;-60
2022/11/22 22:03:05;;;;;;;2.05;0.82;;;8.20;87.60;;;;;;5134858;27;20382;-61
2022/11/22 22:05:31;;;;;;;2.47;1.15;;;8.20;87.90;;;;;;5136094;27;20031;-61
2022/11/22 22:07:56;;;;;;;2.38;1.30;;;8.10;88.20;;;;;;5136372;27;20463;-61
2022/11/22 22:10:22;;;;;;;4.70;2.47;;;8.10;88.40;;;;;;5136209;27;20110;-62
2022/11/22 22:12:51;;;;;;;1.58;1.02;;;8.10;88.30;;;;;;5136636;27;20019;-61
2022/11/22 22:15:17;;;;;;;4.70;1.38;;;8.10;88.30;;;;;;5136230;27;20475;-62
2022/11/22 22:17:43;;;;;;;6.10;1.50;;;8.20;88.40;;;;;;5136098;27;20103;-60
2022/11/22 22:20:09;;;;;;;2.45;1.50;;;8.10;88.40;;;;;;5136141;27;20046;-60